Terminal Aerodrome Forecast
Issued by NWS Portland, ME

Home | Current Version | Previous Version | Text Only | Print | Product List | Glossary On
Versions: 1 2 3 4 5 6 7 8 9 10 11 12 13 14 15 16 17 18 19 20 21 22 23 24 25 26 27 28 29 30 31 32 33 34
000
FTUS41 KGYX 200902 AAA
TAFCON
TAF AMD
KCON 200902Z 2009/2106 04009KT 1/2SM SN BKN008 OVC012
     FM201400 34009KT 1SM -SNPL OVC005
     FM202300 32011KT P6SM BKN025 OVC045=

USA.gov is the U.S. government's official web portal to all federal, state and local government web resources and services.